RYR826 GMMX-GCTS
Flight info
| Callsign | RYR826 |
|---|---|
| Flight time | 1h 26m |
| Altitude | 33000 |
| Route | MAGAV UR975 EKTAL/N0443F350 UR975 ADM UN869 RUSIK |
| Aircraft | B738/M-SDE2E3FGHIRWXY/LB1 |
Departure
| Time | 2026-04-27 05:36 |
|---|---|
| Airport | Marrakesh Menara Airport (GMMX) |
Arrival
| Time | 2026-04-27 07:02 |
|---|---|
| Airport | Tenerife Sur Airport (GCTS) |
| Time | Latitude | Longitude | Altitude | Speed | Heading |
|---|---|---|---|---|---|
| 2026-04-27 05:23 | 31.60342 | -8.02447 | 1548 ft | 0 kts | 185° |
| 2026-04-27 05:31 | 31.60365 | -8.02444 | 1544 ft | 3 kts | 185° |
| 2026-04-27 05:31 | 31.60387 | -8.02443 | 1548 ft | 4 kts | 168° |
| 2026-04-27 05:31 | 31.60408 | -8.02456 | 1547 ft | 4 kts | 118° |
| 2026-04-27 05:31 | 31.60415 | -8.02482 | 1543 ft | 1 kts | 93° |
| 2026-04-27 05:33 | 31.60415 | -8.02481 | 1543 ft | 1 kts | 93° |
| 2026-04-27 05:34 | 31.60413 | -8.02450 | 1547 ft | 7 kts | 93° |
| 2026-04-27 05:34 | 31.60409 | -8.02370 | 1549 ft | 12 kts | 95° |
| 2026-04-27 05:34 | 31.60397 | -8.02252 | 1550 ft | 16 kts | 96° |
| 2026-04-27 05:34 | 31.60385 | -8.02119 | 1552 ft | 16 kts | 96° |
| 2026-04-27 05:35 | 31.60426 | -8.02030 | 1552 ft | 13 kts | 10° |
| 2026-04-27 05:35 | 31.60521 | -8.02032 | 1551 ft | 14 kts | 336° |
| 2026-04-27 05:35 | 31.60555 | -8.02149 | 1550 ft | 28 kts | 277° |
| 2026-04-27 05:35 | 31.60606 | -8.02686 | 1546 ft | 102 kts | 276° |
| 2026-04-27 05:36 | 31.60699 | -8.03778 | 1535 ft | 165 kts | 275° |
| 2026-04-27 05:36 | 31.60827 | -8.05158 | 2122 ft | 175 kts | 277° |
| 2026-04-27 05:36 | 31.61000 | -8.06655 | 2658 ft | 200 kts | 278° |
| 2026-04-27 05:36 | 31.61176 | -8.08364 | 3076 ft | 224 kts | 276° |
| 2026-04-27 05:37 | 31.61330 | -8.10278 | 3378 ft | 244 kts | 275° |
| 2026-04-27 05:37 | 31.61488 | -8.12298 | 3796 ft | 252 kts | 275° |
| 2026-04-27 05:37 | 31.61651 | -8.14369 | 4285 ft | 257 kts | 275° |
| 2026-04-27 05:37 | 31.61651 | -8.16497 | 4777 ft | 262 kts | 256° |
| 2026-04-27 05:38 | 31.60819 | -8.18360 | 5348 ft | 258 kts | 225° |
| 2026-04-27 05:38 | 31.59478 | -8.19682 | 5938 ft | 256 kts | 223° |
| 2026-04-27 05:38 | 31.58409 | -8.21370 | 6447 ft | 261 kts | 242° |
| 2026-04-27 05:38 | 31.57751 | -8.23433 | 6677 ft | 279 kts | 256° |
| 2026-04-27 05:39 | 31.57429 | -8.25717 | 7224 ft | 286 kts | 262° |
| 2026-04-27 05:39 | 31.57210 | -8.28037 | 8012 ft | 286 kts | 263° |
| 2026-04-27 05:39 | 31.57006 | -8.30373 | 8761 ft | 288 kts | 262° |
| 2026-04-27 05:39 | 31.56801 | -8.32722 | 9476 ft | 292 kts | 262° |
| 2026-04-27 05:40 | 31.56588 | -8.35102 | 10143 ft | 296 kts | 262° |
| 2026-04-27 05:40 | 31.56360 | -8.37585 | 10363 ft | 317 kts | 262° |
| 2026-04-27 05:40 | 31.56112 | -8.40239 | 10534 ft | 338 kts | 262° |
| 2026-04-27 05:40 | 31.55846 | -8.43067 | 10735 ft | 357 kts | 262° |
| 2026-04-27 05:41 | 31.55570 | -8.45988 | 11239 ft | 364 kts | 262° |
| 2026-04-27 05:41 | 31.55289 | -8.48950 | 11904 ft | 366 kts | 262° |
| 2026-04-27 05:41 | 31.55009 | -8.51890 | 12570 ft | 368 kts | 262° |
| 2026-04-27 05:41 | 31.54719 | -8.54927 | 13213 ft | 372 kts | 262° |
| 2026-04-27 05:42 | 31.54433 | -8.57909 | 13807 ft | 375 kts | 263° |
| 2026-04-27 05:42 | 31.54139 | -8.60956 | 14383 ft | 378 kts | 262° |
| 2026-04-27 05:42 | 31.53842 | -8.64029 | 14983 ft | 380 kts | 262° |
| 2026-04-27 05:42 | 31.53543 | -8.67123 | 15567 ft | 382 kts | 262° |
| 2026-04-27 05:43 | 31.53241 | -8.70226 | 16145 ft | 385 kts | 262° |
| 2026-04-27 05:43 | 31.52893 | -8.73350 | 16707 ft | 387 kts | 256° |
| 2026-04-27 05:43 | 31.51873 | -8.76257 | 17228 ft | 388 kts | 235° |
| 2026-04-27 05:43 | 31.50098 | -8.78621 | 17814 ft | 388 kts | 219° |
| 2026-04-27 05:44 | 31.47806 | -8.80281 | 18345 ft | 389 kts | 204° |
| 2026-04-27 05:44 | 31.45315 | -8.81553 | 18829 ft | 392 kts | 202° |
| 2026-04-27 05:44 | 31.42786 | -8.82777 | 19288 ft | 395 kts | 202° |
| 2026-04-27 05:44 | 31.40233 | -8.84000 | 19757 ft | 398 kts | 202° |
| 2026-04-27 05:45 | 31.37666 | -8.85240 | 20250 ft | 400 kts | 202° |
| 2026-04-27 05:45 | 31.35081 | -8.86503 | 20705 ft | 402 kts | 202° |
| 2026-04-27 05:45 | 31.32523 | -8.87763 | 21136 ft | 405 kts | 202° |
| 2026-04-27 05:45 | 31.29882 | -8.89072 | 21582 ft | 408 kts | 202° |
| 2026-04-27 05:46 | 31.28147 | -8.89934 | 21870 ft | 410 kts | 202° |
| 2026-04-27 05:46 | 31.25515 | -8.91243 | 22320 ft | 412 kts | 202° |
| 2026-04-27 05:46 | 31.22007 | -8.92987 | 22847 ft | 416 kts | 202° |
| 2026-04-27 05:46 | 31.19336 | -8.94314 | 23261 ft | 418 kts | 202° |
| 2026-04-27 05:47 | 31.17520 | -8.95215 | 23525 ft | 420 kts | 202° |
| 2026-04-27 05:47 | 31.14855 | -8.96537 | 23888 ft | 421 kts | 202° |
| 2026-04-27 05:47 | 31.12153 | -8.97877 | 24272 ft | 422 kts | 202° |
| 2026-04-27 05:47 | 31.09443 | -8.99220 | 24633 ft | 423 kts | 202° |
| 2026-04-27 05:48 | 31.06729 | -9.00564 | 24997 ft | 425 kts | 202° |
| 2026-04-27 05:48 | 31.04006 | -9.01912 | 25351 ft | 426 kts | 202° |
| 2026-04-27 05:48 | 31.01273 | -9.03263 | 25695 ft | 427 kts | 202° |
| 2026-04-27 05:48 | 30.98530 | -9.04625 | 26045 ft | 429 kts | 202° |
| 2026-04-27 05:49 | 30.95779 | -9.05999 | 26375 ft | 430 kts | 202° |
| 2026-04-27 05:49 | 30.93023 | -9.07377 | 26700 ft | 431 kts | 202° |
| 2026-04-27 05:49 | 30.90256 | -9.08760 | 27012 ft | 433 kts | 202° |
| 2026-04-27 05:49 | 30.87483 | -9.10145 | 27327 ft | 434 kts | 202° |
| 2026-04-27 05:50 | 30.84700 | -9.11533 | 27658 ft | 435 kts | 202° |
| 2026-04-27 05:50 | 30.81921 | -9.12918 | 28095 ft | 433 kts | 202° |
| 2026-04-27 05:50 | 30.79167 | -9.14289 | 28608 ft | 429 kts | 202° |
| 2026-04-27 05:50 | 30.76421 | -9.15656 | 29096 ft | 427 kts | 202° |
| 2026-04-27 05:51 | 30.73729 | -9.16995 | 29509 ft | 425 kts | 202° |
| 2026-04-27 05:51 | 30.71009 | -9.18346 | 29889 ft | 425 kts | 202° |
| 2026-04-27 05:51 | 30.68299 | -9.19708 | 30246 ft | 423 kts | 203° |
| 2026-04-27 05:51 | 30.65613 | -9.21089 | 30608 ft | 421 kts | 203° |
| 2026-04-27 05:52 | 30.62946 | -9.22472 | 30968 ft | 419 kts | 204° |
| 2026-04-27 05:52 | 30.60281 | -9.23855 | 31254 ft | 419 kts | 204° |
| 2026-04-27 05:52 | 30.57615 | -9.25236 | 31547 ft | 419 kts | 204° |
| 2026-04-27 05:52 | 30.54961 | -9.26606 | 31895 ft | 417 kts | 204° |
| 2026-04-27 05:53 | 30.52317 | -9.27969 | 32235 ft | 415 kts | 204° |
| 2026-04-27 05:53 | 30.49681 | -9.29325 | 32521 ft | 414 kts | 204° |
| 2026-04-27 05:53 | 30.47044 | -9.30681 | 32791 ft | 414 kts | 204° |
| 2026-04-27 05:54 | 30.41741 | -9.33406 | 32892 ft | 418 kts | 204° |
| 2026-04-27 05:54 | 30.36427 | -9.36137 | 32879 ft | 415 kts | 205° |
| 2026-04-27 05:54 | 30.33996 | -9.37897 | 32887 ft | 413 kts | 219° |
| 2026-04-27 05:55 | 30.31963 | -9.40185 | 32888 ft | 415 kts | 227° |
| 2026-04-27 05:55 | 30.30290 | -9.42909 | 32879 ft | 419 kts | 240° |
| 2026-04-27 05:55 | 30.29031 | -9.45950 | 32912 ft | 419 kts | 243° |
| 2026-04-27 05:56 | 30.26642 | -9.52137 | 32889 ft | 421 kts | 243° |
| 2026-04-27 05:56 | 30.24252 | -9.58330 | 32889 ft | 422 kts | 243° |
| 2026-04-27 05:57 | 30.21822 | -9.64524 | 32893 ft | 423 kts | 243° |
| 2026-04-27 05:57 | 30.19384 | -9.70679 | 32894 ft | 424 kts | 242° |
| 2026-04-27 05:58 | 30.16918 | -9.76879 | 32893 ft | 424 kts | 242° |
| 2026-04-27 05:58 | 30.14443 | -9.83090 | 32903 ft | 425 kts | 242° |
| 2026-04-27 05:59 | 30.11963 | -9.89305 | 32900 ft | 425 kts | 242° |
| 2026-04-27 05:59 | 30.09484 | -9.95508 | 32898 ft | 426 kts | 242° |
| 2026-04-27 06:00 | 30.05773 | -10.04772 | 32901 ft | 426 kts | 242° |
| 2026-04-27 06:00 | 30.03286 | -10.10970 | 32902 ft | 425 kts | 242° |
| 2026-04-27 06:01 | 30.00790 | -10.17178 | 32900 ft | 425 kts | 242° |
| 2026-04-27 06:01 | 29.98312 | -10.23330 | 32905 ft | 425 kts | 242° |
| 2026-04-27 06:02 | 29.95819 | -10.29513 | 32909 ft | 425 kts | 242° |
| 2026-04-27 06:02 | 29.93318 | -10.35702 | 32903 ft | 425 kts | 242° |
| 2026-04-27 06:03 | 29.90822 | -10.41869 | 32910 ft | 425 kts | 242° |
| 2026-04-27 06:03 | 29.88317 | -10.48048 | 32916 ft | 425 kts | 242° |
| 2026-04-27 06:04 | 29.85812 | -10.54218 | 32923 ft | 425 kts | 242° |
| 2026-04-27 06:04 | 29.83317 | -10.60352 | 32914 ft | 425 kts | 242° |
| 2026-04-27 06:05 | 29.80801 | -10.66528 | 32922 ft | 426 kts | 242° |
| 2026-04-27 06:05 | 29.78272 | -10.72726 | 32938 ft | 431 kts | 242° |
| 2026-04-27 06:06 | 29.75705 | -10.79000 | 32935 ft | 440 kts | 242° |
| 2026-04-27 06:06 | 29.73060 | -10.85460 | 32938 ft | 447 kts | 242° |
| 2026-04-27 06:07 | 29.70397 | -10.91954 | 32941 ft | 454 kts | 242° |
| 2026-04-27 06:07 | 29.67690 | -10.98546 | 32935 ft | 455 kts | 242° |
| 2026-04-27 06:08 | 29.64977 | -11.05139 | 32937 ft | 456 kts | 242° |
| 2026-04-27 06:08 | 29.62261 | -11.11730 | 32942 ft | 456 kts | 242° |
| 2026-04-27 06:09 | 29.59544 | -11.18308 | 32944 ft | 456 kts | 242° |
| 2026-04-27 06:09 | 29.56841 | -11.24843 | 32946 ft | 455 kts | 242° |
| 2026-04-27 06:10 | 29.54114 | -11.31424 | 32953 ft | 455 kts | 242° |
| 2026-04-27 06:10 | 29.51391 | -11.37983 | 32954 ft | 455 kts | 242° |
| 2026-04-27 06:11 | 29.48681 | -11.44500 | 32953 ft | 455 kts | 242° |
| 2026-04-27 06:11 | 29.45953 | -11.51049 | 32958 ft | 455 kts | 242° |
| 2026-04-27 06:12 | 29.43217 | -11.57606 | 32957 ft | 455 kts | 242° |
| 2026-04-27 06:12 | 29.40480 | -11.64152 | 32962 ft | 455 kts | 242° |
| 2026-04-27 06:13 | 29.37740 | -11.70698 | 32971 ft | 455 kts | 242° |
| 2026-04-27 06:13 | 29.34995 | -11.77242 | 32961 ft | 455 kts | 242° |
| 2026-04-27 06:14 | 29.32246 | -11.83785 | 32966 ft | 456 kts | 242° |
| 2026-04-27 06:14 | 29.29506 | -11.90296 | 32969 ft | 456 kts | 242° |
| 2026-04-27 06:15 | 29.26748 | -11.96838 | 32972 ft | 457 kts | 242° |
| 2026-04-27 06:15 | 29.23979 | -12.03396 | 32977 ft | 457 kts | 242° |
| 2026-04-27 06:16 | 29.21203 | -12.09960 | 32975 ft | 457 kts | 242° |
| 2026-04-27 06:16 | 29.18427 | -12.16512 | 32978 ft | 457 kts | 242° |
| 2026-04-27 06:17 | 29.15661 | -12.23030 | 32979 ft | 458 kts | 242° |
| 2026-04-27 06:17 | 29.12879 | -12.29574 | 32985 ft | 458 kts | 242° |
| 2026-04-27 06:18 | 29.10088 | -12.36130 | 32982 ft | 458 kts | 242° |
| 2026-04-27 06:18 | 29.07296 | -12.42674 | 32984 ft | 458 kts | 242° |
| 2026-04-27 06:19 | 29.04501 | -12.49216 | 32992 ft | 458 kts | 242° |
| 2026-04-27 06:19 | 29.01699 | -12.55764 | 32988 ft | 458 kts | 242° |
| 2026-04-27 06:20 | 28.98914 | -12.62262 | 32989 ft | 458 kts | 242° |
| 2026-04-27 06:20 | 28.96106 | -12.68802 | 32994 ft | 458 kts | 242° |
| 2026-04-27 06:21 | 28.93299 | -12.75330 | 32992 ft | 458 kts | 242° |
| 2026-04-27 06:21 | 28.90491 | -12.81848 | 32993 ft | 458 kts | 242° |
| 2026-04-27 06:22 | 28.87494 | -12.88254 | 32996 ft | 457 kts | 239° |
| 2026-04-27 06:22 | 28.84368 | -12.94572 | 32995 ft | 456 kts | 239° |
| 2026-04-27 06:23 | 28.81276 | -13.00842 | 32998 ft | 456 kts | 240° |
| 2026-04-27 06:23 | 28.78187 | -13.07164 | 32995 ft | 456 kts | 240° |
| 2026-04-27 06:24 | 28.75102 | -13.13497 | 33001 ft | 456 kts | 240° |
| 2026-04-27 06:24 | 28.72020 | -13.19818 | 33000 ft | 456 kts | 240° |
| 2026-04-27 06:25 | 28.68934 | -13.26136 | 32999 ft | 456 kts | 240° |
| 2026-04-27 06:25 | 28.65849 | -13.32443 | 32998 ft | 456 kts | 240° |
| 2026-04-27 06:26 | 28.62779 | -13.38707 | 33004 ft | 456 kts | 240° |
| 2026-04-27 06:26 | 28.59686 | -13.45007 | 33008 ft | 456 kts | 241° |
| 2026-04-27 06:27 | 28.56591 | -13.51303 | 33005 ft | 456 kts | 241° |
| 2026-04-27 06:27 | 28.53493 | -13.57596 | 33000 ft | 456 kts | 241° |
| 2026-04-27 06:28 | 28.50390 | -13.63890 | 33000 ft | 456 kts | 241° |
| 2026-04-27 06:28 | 28.47283 | -13.70180 | 32996 ft | 456 kts | 241° |
| 2026-04-27 06:29 | 28.44177 | -13.76461 | 32996 ft | 456 kts | 241° |
| 2026-04-27 06:29 | 28.41060 | -13.82752 | 32995 ft | 456 kts | 241° |
| 2026-04-27 06:30 | 28.37964 | -13.88994 | 32996 ft | 456 kts | 241° |
| 2026-04-27 06:30 | 28.34846 | -13.95271 | 33002 ft | 456 kts | 241° |
| 2026-04-27 06:31 | 28.31724 | -14.01545 | 33000 ft | 456 kts | 242° |
| 2026-04-27 06:31 | 28.28621 | -14.07772 | 33006 ft | 455 kts | 242° |
| 2026-04-27 06:32 | 28.25500 | -14.14026 | 33012 ft | 455 kts | 242° |
| 2026-04-27 06:32 | 28.22380 | -14.20268 | 33023 ft | 455 kts | 242° |
| 2026-04-27 06:33 | 28.19258 | -14.26506 | 33015 ft | 454 kts | 242° |
| 2026-04-27 06:33 | 28.16142 | -14.32722 | 33020 ft | 453 kts | 242° |
| 2026-04-27 06:34 | 28.13023 | -14.38934 | 33021 ft | 453 kts | 242° |
| 2026-04-27 06:34 | 28.09926 | -14.45094 | 33023 ft | 452 kts | 242° |
| 2026-04-27 06:35 | 28.06811 | -14.51282 | 33017 ft | 452 kts | 242° |
| 2026-04-27 06:35 | 28.03694 | -14.57466 | 33022 ft | 451 kts | 242° |
| 2026-04-27 06:36 | 28.01142 | -14.62517 | 33006 ft | 434 kts | 242° |
| 2026-04-27 06:36 | 27.98986 | -14.68733 | 33053 ft | 423 kts | 258° |
| 2026-04-27 06:37 | 27.98314 | -14.71981 | 32952 ft | 425 kts | 258° |
| 2026-04-27 06:37 | 27.97650 | -14.75259 | 32591 ft | 426 kts | 258° |
| 2026-04-27 06:37 | 27.96986 | -14.78495 | 32160 ft | 421 kts | 258° |
| 2026-04-27 06:37 | 27.96314 | -14.81706 | 31781 ft | 416 kts | 258° |
| 2026-04-27 06:38 | 27.95639 | -14.84876 | 31342 ft | 413 kts | 258° |
| 2026-04-27 06:38 | 27.94963 | -14.88015 | 30927 ft | 410 kts | 258° |
| 2026-04-27 06:38 | 27.94286 | -14.91137 | 30512 ft | 407 kts | 258° |
| 2026-04-27 06:38 | 27.93612 | -14.94235 | 30104 ft | 404 kts | 258° |
| 2026-04-27 06:39 | 27.92950 | -14.97273 | 29627 ft | 401 kts | 258° |
| 2026-04-27 06:39 | 27.92284 | -15.00325 | 29169 ft | 398 kts | 258° |
| 2026-04-27 06:39 | 27.91622 | -15.03353 | 28751 ft | 394 kts | 258° |
| 2026-04-27 06:39 | 27.90968 | -15.06347 | 28309 ft | 391 kts | 258° |
| 2026-04-27 06:40 | 27.90319 | -15.09310 | 27907 ft | 387 kts | 257° |
| 2026-04-27 06:40 | 27.89673 | -15.12261 | 27482 ft | 384 kts | 257° |
| 2026-04-27 06:40 | 27.89033 | -15.15180 | 27071 ft | 381 kts | 257° |
| 2026-04-27 06:40 | 27.88396 | -15.18086 | 26668 ft | 378 kts | 257° |
| 2026-04-27 06:41 | 27.87764 | -15.20963 | 26263 ft | 376 kts | 257° |
| 2026-04-27 06:41 | 27.87143 | -15.23788 | 25870 ft | 374 kts | 257° |
| 2026-04-27 06:41 | 27.86518 | -15.26628 | 25470 ft | 372 kts | 257° |
| 2026-04-27 06:41 | 27.85895 | -15.29453 | 25075 ft | 370 kts | 257° |
| 2026-04-27 06:42 | 27.85275 | -15.32268 | 24683 ft | 368 kts | 257° |
| 2026-04-27 06:42 | 27.84657 | -15.35068 | 24383 ft | 363 kts | 257° |
| 2026-04-27 06:42 | 27.84052 | -15.37803 | 24194 ft | 356 kts | 257° |
| 2026-04-27 06:42 | 27.83457 | -15.40490 | 24045 ft | 347 kts | 257° |
| 2026-04-27 06:43 | 27.83114 | -15.43153 | 23854 ft | 339 kts | 272° |
| 2026-04-27 06:43 | 27.83519 | -15.45762 | 23381 ft | 340 kts | 288° |
| 2026-04-27 06:43 | 27.84254 | -15.48281 | 23014 ft | 337 kts | 288° |
| 2026-04-27 06:43 | 27.85012 | -15.50782 | 22636 ft | 336 kts | 289° |
| 2026-04-27 06:44 | 27.85768 | -15.53271 | 22273 ft | 333 kts | 289° |
| 2026-04-27 06:44 | 27.86502 | -15.55713 | 21934 ft | 331 kts | 288° |
| 2026-04-27 06:44 | 27.87234 | -15.58169 | 21592 ft | 329 kts | 288° |
| 2026-04-27 06:44 | 27.87956 | -15.60614 | 21262 ft | 327 kts | 288° |
| 2026-04-27 06:45 | 27.88672 | -15.63048 | 20923 ft | 325 kts | 288° |
| 2026-04-27 06:45 | 27.89380 | -15.65462 | 20590 ft | 320 kts | 288° |
| 2026-04-27 06:45 | 27.90072 | -15.67827 | 20258 ft | 313 kts | 288° |
| 2026-04-27 06:45 | 27.90747 | -15.70137 | 19935 ft | 307 kts | 288° |
| 2026-04-27 06:46 | 27.91415 | -15.72427 | 19610 ft | 308 kts | 288° |
| 2026-04-27 06:46 | 27.92100 | -15.74770 | 19296 ft | 318 kts | 288° |
| 2026-04-27 06:46 | 27.92789 | -15.77136 | 18964 ft | 314 kts | 288° |
| 2026-04-27 06:46 | 27.93446 | -15.79487 | 18422 ft | 315 kts | 282° |
| 2026-04-27 06:47 | 27.93486 | -15.81973 | 17723 ft | 320 kts | 259° |
| 2026-04-27 06:47 | 27.92671 | -15.84304 | 17136 ft | 321 kts | 239° |
| 2026-04-27 06:47 | 27.91190 | -15.86189 | 16602 ft | 321 kts | 224° |
| 2026-04-27 06:47 | 27.89527 | -15.87865 | 16079 ft | 320 kts | 223° |
| 2026-04-27 06:48 | 27.87850 | -15.89509 | 15581 ft | 318 kts | 223° |
| 2026-04-27 06:48 | 27.86184 | -15.91140 | 15084 ft | 316 kts | 223° |
| 2026-04-27 06:48 | 27.84530 | -15.92769 | 14606 ft | 314 kts | 223° |
| 2026-04-27 06:48 | 27.82895 | -15.94389 | 14137 ft | 312 kts | 223° |
| 2026-04-27 06:49 | 27.81266 | -15.96011 | 13633 ft | 311 kts | 223° |
| 2026-04-27 06:49 | 27.79669 | -15.97605 | 13123 ft | 309 kts | 224° |
| 2026-04-27 06:49 | 27.78060 | -15.99212 | 12610 ft | 308 kts | 224° |
| 2026-04-27 06:49 | 27.76458 | -16.00813 | 12126 ft | 306 kts | 223° |
| 2026-04-27 06:50 | 27.74881 | -16.02389 | 11760 ft | 300 kts | 223° |
| 2026-04-27 06:50 | 27.73331 | -16.03936 | 11440 ft | 293 kts | 223° |
| 2026-04-27 06:50 | 27.71821 | -16.05442 | 11139 ft | 287 kts | 223° |
| 2026-04-27 06:50 | 27.70359 | -16.06951 | 10842 ft | 282 kts | 231° |
| 2026-04-27 06:51 | 27.69406 | -16.08841 | 10620 ft | 274 kts | 250° |
| 2026-04-27 06:51 | 27.68672 | -16.10843 | 10364 ft | 281 kts | 250° |
| 2026-04-27 06:51 | 27.68116 | -16.13001 | 10065 ft | 292 kts | 269° |
| 2026-04-27 06:51 | 27.68444 | -16.15211 | 9755 ft | 283 kts | 297° |
| 2026-04-27 06:52 | 27.69598 | -16.16923 | 9432 ft | 269 kts | 323° |
| 2026-04-27 06:52 | 27.71173 | -16.17967 | 9150 ft | 259 kts | 338° |
| 2026-04-27 06:52 | 27.72805 | -16.18727 | 8882 ft | 255 kts | 339° |
| 2026-04-27 06:52 | 27.74449 | -16.19478 | 8621 ft | 254 kts | 340° |
| 2026-04-27 06:53 | 27.76092 | -16.20226 | 8322 ft | 256 kts | 339° |
| 2026-04-27 06:53 | 27.77755 | -16.20998 | 8059 ft | 262 kts | 339° |
| 2026-04-27 06:53 | 27.79473 | -16.21804 | 7779 ft | 272 kts | 340° |
| 2026-04-27 06:53 | 27.81219 | -16.22627 | 7470 ft | 270 kts | 339° |
| 2026-04-27 06:54 | 27.82945 | -16.23442 | 7172 ft | 266 kts | 340° |
| 2026-04-27 06:54 | 27.84644 | -16.24245 | 6879 ft | 263 kts | 339° |
| 2026-04-27 06:54 | 27.86320 | -16.25037 | 6610 ft | 259 kts | 340° |
| 2026-04-27 06:54 | 27.87973 | -16.25818 | 6323 ft | 256 kts | 340° |
| 2026-04-27 06:55 | 27.89607 | -16.26591 | 6022 ft | 253 kts | 340° |
| 2026-04-27 06:55 | 27.91215 | -16.27352 | 5802 ft | 251 kts | 339° |
| 2026-04-27 06:55 | 27.92834 | -16.28117 | 5594 ft | 254 kts | 339° |
| 2026-04-27 06:55 | 27.94487 | -16.28898 | 5375 ft | 260 kts | 339° |
| 2026-04-27 06:56 | 27.96151 | -16.29686 | 5152 ft | 263 kts | 339° |
| 2026-04-27 06:56 | 27.97846 | -16.30489 | 4910 ft | 264 kts | 339° |
| 2026-04-27 06:56 | 27.99539 | -16.31292 | 4670 ft | 263 kts | 339° |
| 2026-04-27 06:56 | 28.01214 | -16.32087 | 4425 ft | 259 kts | 339° |
| 2026-04-27 06:57 | 28.02858 | -16.32867 | 4198 ft | 253 kts | 339° |
| 2026-04-27 06:57 | 28.04464 | -16.33630 | 3972 ft | 247 kts | 339° |
| 2026-04-27 06:57 | 28.06026 | -16.34371 | 3763 ft | 241 kts | 339° |
| 2026-04-27 06:57 | 28.07554 | -16.35097 | 3546 ft | 235 kts | 339° |
| 2026-04-27 06:58 | 28.09038 | -16.35824 | 3344 ft | 229 kts | 332° |
| 2026-04-27 06:58 | 28.10220 | -16.38829 | 2988 ft | 218 kts | 265° |
| 2026-04-27 06:58 | 28.10018 | -16.40505 | 2744 ft | 212 kts | 259° |
| 2026-04-27 06:59 | 28.09657 | -16.42086 | 2583 ft | 201 kts | 255° |
| 2026-04-27 06:59 | 28.09212 | -16.43536 | 2459 ft | 189 kts | 250° |
| 2026-04-27 06:59 | 28.08730 | -16.44933 | 2234 ft | 188 kts | 250° |
| 2026-04-27 06:59 | 28.08258 | -16.46284 | 1985 ft | 185 kts | 249° |
| 2026-04-27 07:00 | 28.07779 | -16.47657 | 1741 ft | 185 kts | 249° |
| 2026-04-27 07:00 | 28.07316 | -16.48989 | 1536 ft | 182 kts | 249° |
| 2026-04-27 07:00 | 28.06848 | -16.50334 | 1255 ft | 183 kts | 249° |
| 2026-04-27 07:00 | 28.06387 | -16.51659 | 1011 ft | 176 kts | 249° |
| 2026-04-27 07:01 | 28.05951 | -16.52918 | 794 ft | 168 kts | 249° |
| 2026-04-27 07:01 | 28.05527 | -16.54144 | 560 ft | 168 kts | 248° |
| 2026-04-27 07:01 | 28.05100 | -16.55376 | 328 ft | 168 kts | 249° |
| 2026-04-27 07:01 | 28.04686 | -16.56581 | 206 ft | 158 kts | 249° |
| 2026-04-27 07:02 | 28.04308 | -16.57661 | 194 ft | 127 kts | 248° |
| 2026-04-27 07:02 | 28.04069 | -16.58357 | 203 ft | 58 kts | 248° |
| 2026-04-27 07:02 | 28.04008 | -16.58726 | 206 ft | 29 kts | 289° |
| 2026-04-27 07:02 | 28.04138 | -16.58714 | 218 ft | 25 kts | 72° |
| 2026-04-27 07:03 | 28.04190 | -16.58534 | 222 ft | 23 kts | 72° |
| 2026-04-27 07:03 | 28.04243 | -16.58364 | 216 ft | 22 kts | 69° |
| 2026-04-27 07:03 | 28.04300 | -16.58202 | 216 ft | 22 kts | 68° |
| 2026-04-27 07:03 | 28.04356 | -16.58045 | 215 ft | 21 kts | 69° |
| 2026-04-27 07:04 | 28.04410 | -16.57892 | 217 ft | 21 kts | 69° |
| 2026-04-27 07:04 | 28.04461 | -16.57741 | 214 ft | 21 kts | 68° |
| 2026-04-27 07:04 | 28.04515 | -16.57591 | 219 ft | 20 kts | 68° |
| 2026-04-27 07:04 | 28.04563 | -16.57512 | 216 ft | 6 kts | 9° |
| 2026-04-27 07:05 | 28.04603 | -16.57527 | 219 ft | 4 kts | 339° |
| 2026-04-27 07:05 | 28.04604 | -16.57528 | 219 ft | 0 kts | 339° |